Weather reports worldwide

Advertisment
Malaga,Cmt, Spain (8481): temperature & dewpoint: 18.08.2019 07:00:00 - 24.08.2019 07:00:00 (CEST)Malaga,Cmt, Spain (8481): wind speed & gusts: 18.08.2019 07:00:00 - 24.08.2019 07:00:00 (CEST)Malaga,Cmt, Spain (8481): wind direction: 18.08.2019 07:00:00 - 24.08.2019 07:00:00 (CEST)Malaga,Cmt, Spain (8481): reduced air pressure: 18.08.2019 07:00:00 - 24.08.2019 07:00:00 (CEST)Malaga,Cmt, Spain (8481): precipitation: 18.08.2019 07:00:00 - 24.08.2019 07:00:00 (CEST)
Date & Time tt [°C] td [°C] ff [km/h] ff [kn] fx [km/h] fx [kn] dd ppp [hPa] rr [mm]
24.08.2019 07:00:00 - - - - - - - - -
24.08.2019 06:00:00 22,6 17,5 6 3 10 6 WNW 1017,7 0,0
24.08.2019 05:00:00 23,0 17,5 5 3 9 5 NW 1017,9 0,0
24.08.2019 04:00:00 23,0 17,5 4 2 11 6 W 1018,2 0,0
24.08.2019 03:00:00 23,8 19,3 4 2 8 4 NW 1018,4 0,0
24.08.2019 02:00:00 24,0 19,7 4 2 8 4 NW 1018,7 -
24.08.2019 01:00:00 24,3 19,8 0 0 10 5 NE 1018,6 0,0
24.08.2019 00:00:00 24,8 19,8 7 4 13 7 ESE 1018,5 0,0
23.08.2019 23:00:00 24,9 19,3 8 4 14 8 SE 1018,4 0,0
23.08.2019 22:00:00 25,0 19,3 6 3 16 8 SE 1017,8 0,0
23.08.2019 21:00:00 25,4 19,1 10 5 18 10 SE 1017,5 0,0
23.08.2019 20:00:00 26,9 18,8 8 5 19 10 SSE 1017,3 -
23.08.2019 19:00:00 27,8 17,9 10 5 21 11 SE 1017,3 0,0
23.08.2019 18:00:00 28,8 17,1 12 6 23 12 SSE 1017,2 0,0
23.08.2019 17:00:00 29,8 16,2 14 8 24 13 SSE 1017,5 0,0
23.08.2019 16:00:00 30,1 15,0 12 6 27 15 SE 1017,9 0,0
23.08.2019 15:00:00 30,5 14,6 11 6 26 14 SSE 1018,3 0,0
23.08.2019 14:00:00 30,6 15,4 11 6 26 14 SE 1018,5 -
23.08.2019 13:00:00 30,1 15,0 13 7 25 13 SE 1018,7 0,0
23.08.2019 12:00:00 29,5 15,3 11 6 22 12 SE 1018,8 0,0
23.08.2019 11:00:00 27,9 16,5 5 3 16 9 ESE 1018,9 0,0
23.08.2019 10:00:00 25,8 20,1 5 3 10 5 SW 1018,7 0,0
23.08.2019 09:00:00 23,3 22,4 4 2 7 4 NW 1018,5 0,0
23.08.2019 08:00:00 21,8 21,3 3 2 8 5 NNW 1018,4 -
23.08.2019 07:00:00 22,0 21,5 3 2 6 3 NW 1018,0 0,0
23.08.2019 06:00:00 23,4 21,6 4 2 6 4 WSW 1018,0 0,0
23.08.2019 05:00:00 23,9 21,8 4 2 9 5 SSW 1018,2 0,0
23.08.2019 04:00:00 24,1 22,2 5 3 9 5 S 1018,1 0,0
23.08.2019 03:00:00 24,0 22,3 3 2 10 5 S 1018,4 0,0
23.08.2019 02:00:00 24,4 22,4 6 3 14 8 S 1018,6 -
23.08.2019 01:00:00 24,6 22,5 8 4 16 9 SE 1018,7 0,0
23.08.2019 00:00:00 24,9 22,6 9 5 18 10 SE 1018,8 0,0
22.08.2019 23:00:00 25,2 22,3 8 4 15 8 SE 1018,9 0,0
22.08.2019 22:00:00 25,2 22,1 9 5 16 9 SE 1018,3 0,0
22.08.2019 21:00:00 25,6 21,7 9 5 18 10 SSE 1017,5 0,0
22.08.2019 20:00:00 26,4 21,4 9 5 23 13 ESE 1017,3 -
22.08.2019 19:00:00 26,9 21,2 12 6 28 15 SE 1017,3 0,0
22.08.2019 18:00:00 27,8 20,6 13 7 26 14 SE 1017,4 0,0
22.08.2019 17:00:00 28,1 20,9 14 8 31 17 SE 1017,6 0,0
22.08.2019 16:00:00 27,8 20,6 18 10 32 18 ESE 1018,1 0,0
22.08.2019 15:00:00 27,8 19,8 22 12 36 19 SE 1018,3 0,0
22.08.2019 14:00:00 28,5 19,4 20 11 30 16 ESE 1018,7 -
22.08.2019 13:00:00 28,6 19,5 18 10 29 15 SE 1018,9 0,0
22.08.2019 12:00:00 28,2 20,3 16 9 27 15 ESE 1019,0 0,0
22.08.2019 11:00:00 27,5 20,3 12 7 23 12 ESE 1018,8 0,0
22.08.2019 10:00:00 26,3 22,0 11 6 20 11 SE 1018,5 0,0
22.08.2019 09:00:00 25,1 21,8 9 5 14 8 SE 1018,4 0,0
22.08.2019 08:00:00 25,0 21,9 6 3 10 5 SSE 1017,9 -
22.08.2019 07:00:00 24,8 21,7 7 4 13 7 SE 1017,8 0,0
22.08.2019 06:00:00 24,9 22,2 7 4 14 7 ESE 1018,1 0,0
22.08.2019 05:00:00 25,0 22,3 9 5 16 8 ESE 1018,1 0,0
22.08.2019 04:00:00 25,1 22,4 10 5 16 9 ESE 1018,4 0,0
22.08.2019 03:00:00 25,4 22,3 8 4 16 9 ESE 1018,7 0,0
22.08.2019 02:00:00 25,6 22,5 10 6 17 9 SE 1019,2 -
22.08.2019 01:00:00 25,7 22,4 9 5 19 10 ESE 1019,3 0,0
22.08.2019 00:00:00 25,9 22,0 12 6 20 11 ESE 1019,0 0,0
21.08.2019 23:00:00 26,0 21,6 11 6 19 11 ESE 1018,6 0,0
21.08.2019 22:00:00 26,0 21,4 9 5 21 11 SE 1017,8 0,0
21.08.2019 21:00:00 26,4 21,4 10 5 18 10 SE 1016,9 0,0
21.08.2019 20:00:00 26,8 21,8 13 7 21 12 ESE 1016,8 -
21.08.2019 19:00:00 28,5 21,8 14 8 24 13 SE 1016,2 0,0
21.08.2019 18:00:00 28,6 22,1 14 7 25 13 SE 1016,4 0,0
21.08.2019 17:00:00 29,5 22,7 13 7 31 17 SE 1016,5 0,0
21.08.2019 16:00:00 30,0 22,7 13 7 28 15 ESE 1016,8 0,0
21.08.2019 15:00:00 29,6 22,3 14 8 27 15 SSE 1017,4 0,0
21.08.2019 14:00:00 29,6 22,1 15 8 28 15 SE 1017,5 -
21.08.2019 13:00:00 29,4 22,6 15 8 23 13 SE 1017,7 0,0
21.08.2019 12:00:00 29,4 23,6 13 7 21 12 SSE 1017,9 0,0
21.08.2019 11:00:00 27,5 23,1 10 6 20 11 SE 1017,7 0,0
21.08.2019 10:00:00 27,1 23,3 9 5 16 9 SE 1017,2 0,0
21.08.2019 09:00:00 25,9 23,7 4 2 10 5 S 1017,3 0,0
21.08.2019 08:00:00 25,6 23,5 6 3 11 6 SSE 1017,2 -
21.08.2019 07:00:00 25,7 23,6 6 3 10 5 SSE 1016,8 0,0
21.08.2019 06:00:00 25,8 23,7 6 3 12 6 SSE 1016,8 0,0
21.08.2019 05:00:00 25,8 23,5 6 4 12 6 SE 1016,9 0,0
21.08.2019 04:00:00 25,9 23,2 7 4 13 7 SE 1017,0 0,0
21.08.2019 03:00:00 25,7 22,6 6 4 13 7 SE 1017,3 0,0
21.08.2019 02:00:00 25,6 22,3 11 6 21 11 SE 1017,5 -
21.08.2019 01:00:00 25,7 21,4 9 5 18 10 ESE 1017,5 0,0
21.08.2019 00:00:00 25,7 21,4 10 5 18 10 SE 1017,1 0,0
20.08.2019 23:00:00 25,8 21,4 9 5 18 10 SE 1016,8 0,0
20.08.2019 22:00:00 25,6 21,3 9 5 16 8 ESE 1015,9 0,0
20.08.2019 21:00:00 25,9 20,9 11 6 19 11 ESE 1015,1 0,0
20.08.2019 20:00:00 27,2 21,3 12 7 20 11 SE 1014,6 -
20.08.2019 19:00:00 28,0 21,5 12 7 22 12 ESE 1014,6 0,0
20.08.2019 18:00:00 28,2 21,7 16 9 25 14 SE 1014,6 0,0
20.08.2019 17:00:00 28,3 21,8 18 10 29 16 ESE 1014,8 0,0
20.08.2019 16:00:00 28,6 21,9 18 10 30 16 ESE 1015,1 0,0
20.08.2019 15:00:00 29,6 21,6 17 9 26 14 SE 1015,0 0,0
20.08.2019 14:00:00 29,5 21,4 14 8 24 13 SE 1015,1 -
20.08.2019 13:00:00 29,3 22,0 12 7 21 11 SE 1015,6 0,0
20.08.2019 12:00:00 27,8 21,8 13 7 19 10 SE 1015,7 0,0
20.08.2019 11:00:00 27,4 21,0 9 5 19 11 SE 1015,3 0,0
20.08.2019 10:00:00 27,0 20,3 3 2 9 5 SW 1014,7 0,0
20.08.2019 09:00:00 24,7 20,8 1 1 8 4 N 1014,5 0,0
20.08.2019 08:00:00 23,0 20,5 1 1 9 5 NNW 1014,1 -
20.08.2019 07:00:00 23,0 20,7 3 2 10 6 NW 1013,8 0,0
20.08.2019 06:00:00 23,1 20,6 6 4 10 5 WNW 1013,6 0,0
20.08.2019 05:00:00 23,8 20,3 3 2 11 6 NW 1013,7 0,0
20.08.2019 04:00:00 24,0 20,3 5 3 17 9 SE 1013,7 0,0
20.08.2019 03:00:00 23,8 22,3 12 7 21 11 SE 1013,6 0,0
20.08.2019 02:00:00 24,6 22,5 10 5 16 9 ESE 1013,9 -
20.08.2019 01:00:00 26,3 21,3 5 3 8 4 ESE 1013,2 0,0
20.08.2019 00:00:00 26,7 19,6 4 2 9 5 W 1012,6 0,0
19.08.2019 23:00:00 26,8 20,4 2 1 5 3 SE 1012,7 0,0
19.08.2019 22:00:00 27,5 20,3 4 2 16 8 SE 1011,6 0,0
19.08.2019 21:00:00 29,5 18,6 6 4 16 9 E 1011,1 0,0
19.08.2019 20:00:00 31,8 17,3 9 5 22 12 E 1010,4 -
19.08.2019 19:00:00 31,5 17,4 14 7 26 14 E 1010,9 0,0
19.08.2019 18:00:00 31,6 17,5 15 8 27 14 E 1011,1 0,0
19.08.2019 17:00:00 32,6 17,2 13 7 24 13 ESE 1011,4 0,0
19.08.2019 16:00:00 34,3 16,6 12 7 19 11 ESE 1011,8 0,0
19.08.2019 15:00:00 32,5 17,1 11 6 25 13 ESE 1012,4 0,0
19.08.2019 14:00:00 30,6 17,0 14 8 23 12 ESE 1012,8 -
19.08.2019 13:00:00 31,8 16,6 14 8 21 11 E 1013,1 0,0
19.08.2019 12:00:00 35,3 16,1 15 8 27 14 WSW 1012,8 0,0
19.08.2019 11:00:00 32,6 15,2 16 9 27 14 W 1012,9 0,0
19.08.2019 10:00:00 29,9 14,0 16 9 27 15 W 1012,9 0,0
19.08.2019 09:00:00 27,3 12,5 13 7 21 11 WNW 1012,9 0,0
19.08.2019 08:00:00 26,4 11,7 12 6 21 11 WNW 1012,5 -
19.08.2019 07:00:00 26,9 11,8 9 5 20 11 WNW 1011,9 0,0
19.08.2019 06:00:00 27,8 11,8 10 5 18 10 WNW 1011,6 0,0
19.08.2019 05:00:00 28,0 11,1 10 6 18 10 W 1012,3 0,0
19.08.2019 04:00:00 29,4 11,4 10 5 18 10 W 1012,2 0,0
19.08.2019 03:00:00 29,1 10,8 9 5 15 8 W 1012,4 0,0
19.08.2019 02:00:00 29,0 12,8 8 5 17 9 W 1012,5 -
19.08.2019 01:00:00 28,9 14,3 9 5 14 8 W 1012,6 0,0
19.08.2019 00:00:00 28,9 16,1 8 4 13 7 W 1012,4 0,0
18.08.2019 23:00:00 28,8 16,0 8 5 10 6 W 1011,9 0,0
18.08.2019 22:00:00 28,5 17,7 6 3 10 5 WNW 1011,3 0,0
18.08.2019 21:00:00 29,6 17,8 3 2 14 8 S 1011,0 0,0
18.08.2019 20:00:00 32,7 17,3 8 4 19 10 E 1010,6 -
18.08.2019 19:00:00 30,2 18,3 13 7 21 11 E 1011,3 0,0
18.08.2019 18:00:00 30,6 18,0 12 7 21 12 E 1011,5 0,0
18.08.2019 17:00:00 30,9 18,9 12 6 24 13 ESE 1011,9 0,0
18.08.2019 16:00:00 29,3 17,5 16 9 24 13 ESE 1012,6 0,0
18.08.2019 15:00:00 29,5 17,7 14 7 22 12 E 1013,0 0,0
18.08.2019 14:00:00 29,9 17,1 13 7 21 12 E 1013,2 -
18.08.2019 13:00:00 29,9 16,6 14 8 19 10 ESE 1013,5 0,0
18.08.2019 12:00:00 30,4 16,8 9 5 13 7 SE 1013,5 0,0
18.08.2019 11:00:00 29,6 14,5 3 2 8 4 WSW 1013,1 0,0
18.08.2019 10:00:00 26,7 16,0 3 2 6 4 SE 1012,9 0,0
18.08.2019 09:00:00 23,2 14,7 0 0 7 4 ESE 1012,5 0,0
18.08.2019 08:00:00 20,9 13,9 1 0 4 2 WSW 1012,3 -
18.08.2019 07:00:00 21,9 13,3 3 1 10 5 SE 1012,1 1,2

tt = temperature
td = dewpoint
ff = wind speed
fx = gusts
dd = wind direction
ppp = reduced air pressure
rr = precipitation

Next stations